createdAt,value
2022-09-11T00:00:00.852Z,80
2022-09-11T00:10:00.870Z,93
2022-09-11T00:20:00.885Z,89
2022-09-11T00:30:00.947Z,88
2022-09-11T00:40:00.935Z,90
2022-09-11T00:50:00.951Z,85
2022-09-11T01:00:01.035Z,80
2022-09-11T01:10:01.011Z,76
2022-09-11T01:20:01.028Z,74
2022-09-11T01:30:01.063Z,71
2022-09-11T01:40:01.066Z,70
2022-09-11T01:50:01.091Z,66
2022-09-11T02:00:01.113Z,70
2022-09-11T02:10:01.147Z,71
2022-09-11T02:20:01.180Z,56
2022-09-11T02:30:01.182Z,53
2022-09-11T02:40:01.202Z,57
2022-09-11T02:50:01.236Z,42
2022-09-11T03:00:01.297Z,53
2022-09-11T03:10:01.335Z,27
2022-09-11T03:20:01.304Z,20
2022-09-11T03:30:01.410Z,14
2022-09-11T03:40:01.336Z,21
2022-09-11T03:50:01.375Z,13
2022-09-11T04:00:01.379Z,14
2022-09-11T04:10:01.418Z,14
2022-09-11T04:20:01.434Z,16
2022-09-11T04:30:01.485Z,17
2022-09-11T04:40:01.478Z,11
2022-09-11T04:50:01.502Z,20
2022-09-11T05:00:01.534Z,14
2022-09-11T05:10:01.537Z,10
2022-09-11T05:20:01.570Z,7
2022-09-11T05:30:01.605Z,5
2022-09-11T05:40:01.602Z,32
2022-09-11T05:50:01.636Z,21
2022-09-11T06:00:01.670Z,14
2022-09-11T06:10:01.689Z,17
2022-09-11T06:20:01.712Z,24
2022-09-11T06:30:01.742Z,20
2022-09-11T06:40:01.755Z,17
2022-09-11T06:50:01.817Z,14
2022-09-11T07:00:01.950Z,31
2022-09-11T07:10:01.830Z,18
2022-09-11T07:20:01.873Z,47
2022-09-11T07:30:01.883Z,58
2022-09-11T07:40:01.902Z,22
2022-09-11T07:50:01.985Z,26
2022-09-11T08:00:01.962Z,27
2022-09-11T08:10:02.003Z,47
2022-09-11T08:20:02.004Z,39
2022-09-11T08:30:02.040Z,69
2022-09-11T08:40:02.068Z,49
2022-09-11T08:50:02.094Z,76
2022-09-11T09:00:02.109Z,79
2022-09-11T09:10:02.133Z,72
2022-09-11T09:20:02.187Z,74
2022-09-11T09:30:02.181Z,61
2022-09-11T09:40:02.214Z,41
2022-09-11T09:50:02.240Z,48
2022-09-11T10:00:02.264Z,61
2022-09-11T10:10:02.298Z,73
2022-09-11T10:20:02.312Z,74
2022-09-11T10:30:02.361Z,79
2022-09-11T10:40:02.381Z,84
2022-09-11T10:50:02.398Z,84
2022-09-11T11:00:02.465Z,82
2022-09-11T11:10:02.470Z,84
2022-09-11T11:20:02.475Z,1
2022-09-11T11:30:02.510Z,1
2022-09-11T11:40:02.521Z,1
2022-09-11T11:50:02.559Z,62
2022-09-11T12:00:02.625Z,5
2022-09-11T12:10:02.590Z,38
2022-09-11T12:20:02.630Z,66
2022-09-11T12:30:02.659Z,4
2022-09-11T12:40:02.691Z,1
2022-09-11T12:50:02.708Z,2
2022-09-11T13:00:02.738Z,2
2022-09-11T13:10:02.757Z,1
2022-09-11T13:20:02.782Z,1
2022-09-11T13:30:02.803Z,1
2022-09-11T13:40:02.843Z,73
2022-09-11T13:50:02.866Z,81
2022-09-11T14:00:02.875Z,80
2022-09-11T14:10:02.922Z,82
2022-09-11T14:20:02.949Z,72
2022-09-11T14:30:02.971Z,79
2022-09-11T14:40:03.000Z,81
2022-09-11T14:50:03.071Z,77
2022-09-11T15:00:03.105Z,77
2022-09-11T15:10:03.072Z,78
2022-09-11T15:20:03.111Z,76
2022-09-11T15:30:03.139Z,70
2022-09-11T15:40:03.162Z,71
2022-09-11T15:50:03.186Z,36
2022-09-11T16:00:03.208Z,68
2022-09-11T16:10:03.244Z,27
2022-09-11T16:20:03.263Z,42
2022-09-11T16:30:03.309Z,40
2022-09-11T16:40:03.314Z,26
2022-09-11T16:50:03.356Z,38
2022-09-11T17:00:03.373Z,59
2022-09-11T17:10:03.395Z,21
2022-09-11T17:20:03.440Z,33
2022-09-11T17:30:03.472Z,19
2022-09-11T17:40:03.484Z,14
2022-09-11T17:50:03.512Z,18
2022-09-11T18:00:03.557Z,23
2022-09-11T18:10:03.570Z,25
2022-09-11T18:20:03.610Z,27
2022-09-11T18:30:03.622Z,21
2022-09-11T18:40:03.660Z,51
2022-09-11T18:50:03.679Z,21
2022-09-11T19:00:03.728Z,49
2022-09-11T19:10:03.759Z,14
2022-09-11T19:20:03.772Z,23
2022-09-11T19:30:03.811Z,15
2022-09-11T19:40:03.802Z,27
2022-09-11T19:50:03.859Z,25
2022-09-11T20:00:03.884Z,57
2022-09-11T20:10:03.909Z,59
2022-09-11T20:20:03.976Z,15
2022-09-11T20:30:03.948Z,21
2022-09-11T20:40:03.994Z,20
2022-09-11T20:50:03.999Z,17
2022-09-11T21:00:04.042Z,14
2022-09-11T21:10:04.057Z,18
2022-09-11T21:20:04.082Z,21
2022-09-11T21:30:04.125Z,19
2022-09-11T21:40:04.146Z,14
2022-09-11T21:50:04.185Z,14
2022-09-11T22:00:04.210Z,18
2022-09-11T22:10:04.254Z,46
2022-09-11T22:20:04.270Z,49
2022-09-11T22:30:04.280Z,20
2022-09-11T22:40:04.342Z,52
2022-09-11T22:50:04.349Z,25
2022-09-11T23:00:04.362Z,13
2022-09-11T23:10:04.398Z,28
2022-09-11T23:20:04.426Z,55
2022-09-11T23:30:04.453Z,18
2022-09-11T23:40:04.496Z,27
2022-09-11T23:50:04.524Z,32
